createdAt,value
2019-05-25T00:02:30.766Z,100037.89
2019-05-25T00:07:34.529Z,100038.23
2019-05-25T00:12:38.311Z,100040.44
2019-05-25T00:17:42.176Z,100033.15
2019-05-25T00:22:45.961Z,100031.45
2019-05-25T00:27:49.734Z,100023.52
2019-05-25T00:32:53.496Z,100033.64
2019-05-25T00:37:57.260Z,100034.64
2019-05-25T00:43:01.025Z,100047.05
2019-05-25T00:48:04.811Z,100038.09
2019-05-25T00:53:08.595Z,100038.09
2019-05-25T00:58:12.375Z,100044.06
2019-05-25T01:03:16.135Z,100042.36
2019-05-25T01:08:19.991Z,100044.70
2019-05-25T01:13:23.809Z,100043.62
2019-05-25T01:18:27.575Z,100043.62
2019-05-25T01:23:31.507Z,100038.38
2019-05-25T01:28:37.939Z,100034.48
2019-05-25T01:33:41.877Z,100041.72
2019-05-25T01:38:45.628Z,100043.91
2019-05-25T01:43:49.510Z,100049.64
2019-05-25T01:48:53.274Z,100049.64
2019-05-25T01:53:57.020Z,100044.55
2019-05-25T01:59:00.837Z,100047.24
2019-05-25T02:04:04.596Z,100045.66
2019-05-25T02:09:08.563Z,100045.66
2019-05-25T02:14:12.335Z,100042.58
2019-05-25T02:19:16.155Z,100042.73
2019-05-25T02:24:19.883Z,100045.21
2019-05-25T02:29:23.680Z,100051.30
2019-05-25T02:34:27.432Z,100051.30
2019-05-25T02:39:31.189Z,100054.98
2019-05-25T02:44:34.993Z,100071.07
2019-05-25T02:49:38.829Z,100066.04
2019-05-25T02:54:42.658Z,100066.04
2019-05-25T02:59:46.445Z,100066.68
2019-05-25T03:04:50.217Z,100074.61
2019-05-25T03:09:53.971Z,100084.18
2019-05-25T03:14:57.747Z,100085.14
2019-05-25T03:20:01.540Z,100086.12
2019-05-25T03:25:06.031Z,100086.12
2019-05-25T03:30:09.942Z,100094.49
2019-05-25T03:35:13.770Z,100101.44
2019-05-25T03:40:17.546Z,100104.48
2019-05-25T03:45:21.425Z,100104.48
2019-05-25T03:50:25.340Z,100103.06
2019-05-25T03:55:29.151Z,100109.94
2019-05-25T04:00:34.674Z,100108.80
2019-05-25T04:05:38.486Z,100110.43
2019-05-25T04:10:42.390Z,100120.34
2019-05-25T04:15:46.174Z,100125.88
2019-05-25T04:20:49.945Z,100125.88
2019-05-25T04:25:53.825Z,100123.78
2019-05-25T04:30:57.696Z,100129.17
2019-05-25T04:36:01.608Z,100137.59
2019-05-25T04:41:05.443Z,100150.70
2019-05-25T04:46:09.225Z,100158.28
2019-05-25T04:51:13.000Z,100152.40
2019-05-25T04:56:16.825Z,100167.34
2019-05-25T05:01:22.574Z,100170.03
2019-05-25T05:06:26.202Z,100170.03
2019-05-25T05:11:29.961Z,100183.98
2019-05-25T05:16:33.810Z,100189.87
2019-05-25T05:21:37.630Z,100193.55
2019-05-25T05:26:54.612Z,100193.55
2019-05-25T05:31:47.055Z,100198.11
2019-05-25T05:36:50.828Z,100198.11
2019-05-25T05:41:55.171Z,100218.34
2019-05-25T05:47:00.113Z,100218.34
2019-05-25T05:52:04.186Z,100219.25
2019-05-25T05:57:12.313Z,100220.46
2019-05-25T06:02:13.453Z,100219.47
2019-05-25T06:07:17.252Z,100221.67
2019-05-25T06:12:21.479Z,100220.46
2019-05-25T06:17:25.239Z,100225.48
2019-05-25T06:22:29.036Z,100228.04
2019-05-25T06:27:32.821Z,100230.73
2019-05-25T06:32:36.796Z,100217.94
2019-05-25T06:37:41.251Z,100236.11
2019-05-25T06:42:46.261Z,100236.11
2019-05-25T06:47:50.052Z,100241.50
2019-05-25T06:52:57.252Z,100249.68
2019-05-25T06:57:59.312Z,100249.68
2019-05-25T07:03:03.096Z,100270.48
2019-05-25T07:08:06.924Z,100270.84
2019-05-25T07:13:10.684Z,100273.23
2019-05-25T07:18:14.444Z,100280.91
2019-05-25T07:23:18.218Z,100280.91
2019-05-25T07:28:22.096Z,100290.69
2019-05-25T07:33:25.864Z,100289.41
2019-05-25T07:38:29.619Z,100301.13
2019-05-25T07:43:33.391Z,100294.79
2019-05-25T07:48:37.158Z,100314.96
2019-05-25T07:53:40.911Z,100302.89
2019-05-25T07:58:44.668Z,100316.75
2019-05-25T08:03:48.590Z,100319.87
2019-05-25T08:08:52.610Z,100333.72
2019-05-25T08:13:56.380Z,100333.72
2019-05-25T08:19:00.135Z,100334.64
2019-05-25T08:24:03.913Z,100334.27
2019-05-25T08:29:07.679Z,100337.77
2019-05-25T08:34:11.452Z,100338.85
2019-05-25T08:39:15.224Z,100331.78
2019-05-25T08:44:18.993Z,100331.78
2019-05-25T08:49:22.773Z,100342.04
2019-05-25T08:54:26.701Z,100336.01
2019-05-25T08:59:30.475Z,100336.01
2019-05-25T09:04:34.227Z,100318.11
2019-05-25T09:09:37.984Z,100318.94
2019-05-25T09:14:41.765Z,100321.05
2019-05-25T09:19:45.496Z,100321.05
2019-05-25T09:24:49.245Z,100313.36
2019-05-25T09:29:53.040Z,100316.52
2019-05-25T09:34:56.812Z,100316.66
2019-05-25T09:40:00.600Z,100319.10
2019-05-25T09:45:04.978Z,100319.10
2019-05-25T09:50:08.814Z,100318.73
2019-05-25T09:55:12.572Z,100324.56
2019-05-25T10:00:16.408Z,100329.09
2019-05-25T10:05:20.195Z,100330.08
2019-05-25T10:10:24.012Z,100327.03
2019-05-25T10:15:28.414Z,100327.03
2019-05-25T10:20:32.345Z,100323.20
2019-05-25T10:25:36.126Z,100315.63
2019-05-25T10:30:39.907Z,100310.44
2019-05-25T10:35:43.664Z,100309.48
2019-05-25T10:40:47.441Z,100309.48
2019-05-25T10:45:51.226Z,100301.51
2019-05-25T10:50:55.004Z,100301.03
2019-05-25T10:55:58.895Z,100304.77
2019-05-25T11:01:02.678Z,100289.63
2019-05-25T11:06:06.730Z,100286.23
2019-05-25T11:11:10.505Z,100294.56
2019-05-25T11:16:14.285Z,100289.19
2019-05-25T11:21:18.075Z,100290.61
2019-05-25T11:26:21.845Z,100281.27
2019-05-25T11:31:25.673Z,100280.56
2019-05-25T11:36:29.477Z,100270.69
2019-05-25T11:41:33.234Z,100264.48
2019-05-25T11:46:37.010Z,100272.20
2019-05-25T11:51:40.817Z,100272.20
2019-05-25T11:56:44.623Z,100276.59
2019-05-25T12:01:48.470Z,100270.92
2019-05-25T12:06:52.309Z,100274.75
2019-05-25T12:11:56.153Z,100274.26
2019-05-25T12:16:59.982Z,100269.02
2019-05-25T12:22:03.765Z,100250.34
2019-05-25T12:27:07.537Z,100269.22
2019-05-25T12:32:11.353Z,100262.27
2019-05-25T12:37:15.125Z,100264.55
2019-05-25T12:42:19.159Z,100259.45
2019-05-25T12:47:23.021Z,100257.53
2019-05-25T12:52:26.854Z,100255.20
2019-05-25T12:57:30.620Z,100256.33
2019-05-25T13:02:34.450Z,100257.45
2019-05-25T13:07:38.243Z,100256.07
2019-05-25T13:12:42.041Z,100256.07
2019-05-25T13:17:45.817Z,100262.80
2019-05-25T13:22:49.586Z,100254.37
2019-05-25T13:27:53.361Z,100250.02
2019-05-25T13:32:57.491Z,100245.62
2019-05-25T13:38:01.310Z,100239.25
2019-05-25T13:43:05.110Z,100240.59
2019-05-25T13:48:08.960Z,100240.59
2019-05-25T13:53:12.736Z,100234.36
2019-05-25T13:58:16.516Z,100229.26
2019-05-25T14:03:20.376Z,100226.84
2019-05-25T14:08:24.155Z,100226.84
2019-05-25T14:13:28.017Z,100217.96
2019-05-25T14:18:31.789Z,100211.13
2019-05-25T14:23:35.784Z,100208.15
2019-05-25T14:28:39.559Z,100206.59
2019-05-25T14:33:43.323Z,100206.59
2019-05-25T14:38:47.189Z,100205.73
2019-05-25T14:43:50.955Z,100208.50
2019-05-25T14:48:54.730Z,100204.75
2019-05-25T14:53:58.504Z,100206.09
2019-05-25T14:59:02.381Z,100205.95
2019-05-25T15:04:06.173Z,100205.95
2019-05-25T15:09:09.948Z,100204.25
2019-05-25T15:14:13.749Z,100200.21
2019-05-25T15:19:17.672Z,100208.14
2019-05-25T15:24:21.446Z,100208.14
2019-05-25T15:29:25.231Z,100202.45
2019-05-25T15:34:29.179Z,100205.70
2019-05-25T15:39:32.954Z,100205.70
2019-05-25T15:44:36.734Z,100202.94
2019-05-25T15:49:40.513Z,100206.02
2019-05-25T15:54:44.306Z,100203.47
2019-05-25T15:59:48.081Z,100203.47
2019-05-25T16:04:51.859Z,100201.88
2019-05-25T16:09:55.633Z,100203.36
2019-05-25T16:14:59.417Z,100202.65
2019-05-25T16:20:03.208Z,100203.00
2019-05-25T16:25:07.648Z,100203.00
2019-05-25T16:30:11.499Z,100198.44
2019-05-25T16:35:15.282Z,100206.36
2019-05-25T16:40:19.062Z,100208.20
2019-05-25T16:45:22.833Z,100204.81
2019-05-25T16:50:26.636Z,100205.45
2019-05-25T16:55:30.421Z,100216.80
2019-05-25T17:00:34.231Z,100216.19
2019-05-25T17:05:38.068Z,100218.17
2019-05-25T17:10:42.091Z,100222.95
2019-05-25T17:15:46.000Z,100219.48
2019-05-25T17:20:49.789Z,100224.58
2019-05-25T17:25:53.603Z,100226.92
2019-05-25T17:30:57.391Z,100232.62
2019-05-25T17:36:01.202Z,100235.95
2019-05-25T17:41:05.136Z,100235.19
2019-05-25T17:46:08.960Z,100230.77
2019-05-25T17:51:12.747Z,100230.45
2019-05-25T17:56:16.644Z,100234.28
2019-05-25T18:01:20.431Z,100247.32
2019-05-25T18:06:24.204Z,100248.50
2019-05-25T18:11:27.989Z,100251.40
2019-05-25T18:16:31.765Z,100259.27
2019-05-25T18:21:35.542Z,100259.27
2019-05-25T18:26:39.316Z,100261.11
2019-05-25T18:31:43.095Z,100257.58
2019-05-25T18:36:46.865Z,100257.58
2019-05-25T18:41:50.653Z,100268.13
2019-05-25T18:46:54.434Z,100267.95
2019-05-25T18:51:58.224Z,100267.95
2019-05-25T18:57:05.324Z,100276.03
2019-05-25T19:02:07.484Z,100278.58
2019-05-25T19:07:11.298Z,100279.69
2019-05-25T19:12:15.063Z,100271.95
2019-05-25T19:17:18.913Z,100296.98
2019-05-25T19:22:22.765Z,100311.16
2019-05-25T19:27:26.581Z,100317.97
2019-05-25T19:32:30.301Z,100332.14
2019-05-25T19:37:34.083Z,100319.98
2019-05-25T19:42:37.827Z,100339.23
2019-05-25T19:47:41.587Z,100340.86
2019-05-25T19:52:45.344Z,100347.45
2019-05-25T19:57:49.186Z,100347.45
2019-05-25T20:02:52.941Z,100356.03
2019-05-25T20:07:56.784Z,100360.57
2019-05-25T20:13:00.649Z,100361.28
2019-05-25T20:18:04.510Z,100363.41
2019-05-25T20:23:08.308Z,100370.36
2019-05-25T20:28:12.068Z,100382.20
2019-05-25T20:33:26.932Z,100386.09
2019-05-25T20:38:21.342Z,100389.48
2019-05-25T20:43:25.113Z,100388.28
2019-05-25T20:48:28.985Z,100388.28
2019-05-25T20:53:32.794Z,100401.36
2019-05-25T20:58:39.087Z,100397.57
2019-05-25T21:03:42.050Z,100397.57
2019-05-25T21:08:45.832Z,100398.50
2019-05-25T21:13:49.603Z,100400.27
2019-05-25T21:18:53.405Z,100380.23
2019-05-25T21:23:57.199Z,100407.36
2019-05-25T21:29:00.948Z,100417.63
2019-05-25T21:34:04.788Z,100417.14
2019-05-25T21:39:08.605Z,100427.39
2019-05-25T21:44:12.475Z,100434.98
2019-05-25T21:49:16.363Z,100431.79
2019-05-25T21:54:20.182Z,100425.77
2019-05-25T21:59:24.052Z,100426.27
2019-05-25T22:04:27.825Z,100433.71
2019-05-25T22:09:31.599Z,100431.52
2019-05-25T22:14:35.369Z,100425.62
2019-05-25T22:19:39.260Z,100425.62
2019-05-25T22:24:43.116Z,100410.81
2019-05-25T22:29:46.948Z,100414.00
2019-05-25T22:34:50.769Z,100415.70
2019-05-25T22:39:54.552Z,100416.20
2019-05-25T22:44:58.408Z,100406.77
2019-05-25T22:50:02.304Z,100397.80
2019-05-25T22:55:06.564Z,100397.80
2019-05-25T23:00:10.573Z,100410.17
2019-05-25T23:05:14.437Z,100410.81
2019-05-25T23:10:18.243Z,100402.09
2019-05-25T23:15:22.003Z,100403.58
2019-05-25T23:20:25.796Z,100390.11
2019-05-25T23:25:29.577Z,100384.86
2019-05-25T23:30:33.337Z,100382.17
2019-05-25T23:35:37.113Z,100363.84
2019-05-25T23:40:41.170Z,100357.99
2019-05-25T23:45:45.022Z,100361.19
2019-05-25T23:50:48.835Z,100361.19
2019-05-25T23:55:52.609Z,100366.72
